Alpha, Minnesota
Current Conditions -  °F | °C
As of 9:14 AM on Monday 24 Nov 2014 (Local Time) from KMJQ Reporting Station
Overcast Overcast  
Wind Chill:   Ceiling: 2500
Heat Index: 19°   Visibility: 10mi
Dew Point: 12°   Wind: 28mph
Humidity: 74%   Direction: 310°NW
Pressure: 29.53"   Gusts: 33mph
Location:  43.64°N, 94.87°W
Report Text: KMJQ 241514Z AUTO 31024G29KT 10SM SCT017 OVC025 M07/M11 A2953 RMK AO2
Loading
Personal Weather Stations






























Interactive Weather Map New forecast layout! Learn more

10-Day Weather Forecast

Advertisements
Track Severe Weather on mobile